createdAt,value
2022-08-05T00:01:35.758Z,100532.42
2022-08-05T00:04:08.392Z,100536.59
2022-08-05T00:06:36.511Z,100536.46
2022-08-05T00:09:12.880Z,100536.36
2022-08-05T00:11:49.010Z,100535.60
2022-08-05T00:14:26.490Z,100537.17
2022-08-05T00:16:57.728Z,100535.85
2022-08-05T00:19:33.087Z,100539.03
2022-08-05T00:22:02.976Z,100538.89
2022-08-05T00:24:32.434Z,100541.38
2022-08-05T00:27:04.515Z,100539.45
2022-08-05T00:29:38.469Z,100536.23
2022-08-05T00:32:13.364Z,100533.79
2022-08-05T00:35:04.623Z,100534.35
2022-08-05T00:37:35.881Z,100536.71
2022-08-05T00:40:27.299Z,100535.41
2022-08-05T00:42:59.175Z,100533.32
2022-08-05T00:45:37.847Z,100533.10
2022-08-05T00:48:16.961Z,100534.77
2022-08-05T00:50:46.756Z,100534.65
2022-08-05T00:54:00.195Z,100534.73
2022-08-05T00:56:05.732Z,100534.42
2022-08-05T00:58:37.332Z,100535.08
2022-08-05T01:01:09.089Z,100530.05
2022-08-05T01:03:38.971Z,100530.77
2022-08-05T01:06:11.314Z,100531.09
2022-08-05T01:08:44.639Z,100525.75
2022-08-05T01:11:22.590Z,100524.19
2022-08-05T01:14:15.549Z,100523.65
2022-08-05T01:17:02.685Z,100523.42
2022-08-05T01:20:02.479Z,100521.94
2022-08-05T01:22:29.378Z,100516.37
2022-08-05T01:25:18.186Z,100515.27
2022-08-05T01:28:11.115Z,100519.55
2022-08-05T01:30:53.558Z,100517.73
2022-08-05T01:33:26.647Z,100514.39
2022-08-05T01:35:57.397Z,100510.52
2022-08-05T01:38:29.910Z,100505.15
2022-08-05T01:40:59.841Z,100510.19
2022-08-05T01:43:31.949Z,100508.88
2022-08-05T01:46:07.151Z,100512.92
2022-08-05T01:48:49.476Z,100513.27
2022-08-05T01:51:19.408Z,100511.91
2022-08-05T01:53:57.663Z,100510.16
2022-08-05T01:58:10.636Z,100508.89
2022-08-05T01:59:23.414Z,100507.21
2022-08-05T02:01:55.521Z,100506.63
2022-08-05T02:04:26.753Z,100507.85
2022-08-05T02:06:55.950Z,100503.02
2022-08-05T02:09:23.929Z,100499.70
2022-08-05T02:12:12.581Z,100495.73
2022-08-05T02:14:47.154Z,100494.54
2022-08-05T02:18:30.572Z,100495.49
2022-08-05T02:20:23.475Z,100493.30
2022-08-05T02:22:58.651Z,100490.77
2022-08-05T02:25:50.174Z,100489.41
2022-08-05T02:28:29.017Z,100490.20
2022-08-05T02:31:07.718Z,100486.09
2022-08-05T02:34:01.242Z,100482.91
2022-08-05T02:36:32.619Z,100484.20
2022-08-05T02:39:03.447Z,100479.91
2022-08-05T02:41:43.002Z,100482.59
2022-08-05T02:44:25.846Z,100482.36
2022-08-05T02:47:00.308Z,100480.09
2022-08-05T02:49:37.006Z,100479.95
2022-08-05T02:52:25.864Z,100476.27
2022-08-05T02:55:01.891Z,100475.67
2022-08-05T02:58:11.486Z,100472.71
2022-08-05T03:00:25.353Z,100470.42
2022-08-05T03:02:54.913Z,100468.83
2022-08-05T03:06:52.493Z,100465.73
2022-08-05T03:08:12.821Z,100463.59
2022-08-05T03:11:55.638Z,100457.73
2022-08-05T03:13:51.081Z,100459.85
2022-08-05T03:16:21.707Z,100457.80
2022-08-05T03:18:51.516Z,100454.02
2022-08-05T03:21:20.058Z,100457.05
2022-08-05T03:23:50.415Z,100456.04
2022-08-05T03:26:31.378Z,100455.20
2022-08-05T03:29:00.630Z,100453.98
2022-08-05T03:31:57.386Z,100449.73
2022-08-05T03:34:19.206Z,100452.02
2022-08-05T03:36:52.542Z,100451.13
2022-08-05T03:39:27.165Z,100452.17
2022-08-05T03:41:56.850Z,100455.83
2022-08-05T03:44:25.979Z,100455.80
2022-08-05T03:46:57.208Z,100458.11
2022-08-05T03:49:31.176Z,100459.88
2022-08-05T03:52:38.008Z,100460.16
2022-08-05T03:56:04.277Z,100460.13
2022-08-05T03:58:05.495Z,100459.48
2022-08-05T04:00:33.570Z,100459.16
2022-08-05T04:03:04.340Z,100455.02
2022-08-05T04:05:38.617Z,100453.66
2022-08-05T04:08:14.667Z,100452.96
2022-08-05T04:10:59.462Z,100448.95
2022-08-05T04:13:50.071Z,100451.61
2022-08-05T04:16:16.849Z,100454.73
2022-08-05T04:18:54.946Z,100455.44
2022-08-05T04:22:10.359Z,100455.95
2022-08-05T04:24:19.481Z,100456.14
2022-08-05T04:26:51.062Z,100457.51
2022-08-05T04:29:19.804Z,100456.30
2022-08-05T04:31:48.331Z,100457.13
2022-08-05T04:34:33.979Z,100454.02
2022-08-05T04:37:04.086Z,100455.16
2022-08-05T04:39:35.374Z,100448.64
2022-08-05T04:42:03.954Z,100450.70
2022-08-05T04:44:31.938Z,100445.65
2022-08-05T04:46:59.915Z,100443.75
2022-08-05T04:50:02.701Z,100446.02
2022-08-05T04:52:27.619Z,100448.34
2022-08-05T04:54:57.391Z,100448.34
2022-08-05T04:57:29.308Z,100446.50
2022-08-05T04:59:58.466Z,100446.43
2022-08-05T05:02:41.182Z,100451.58
2022-08-05T05:05:17.022Z,100449.59
2022-08-05T05:08:14.311Z,100442.03
2022-08-05T05:10:58.217Z,100450.45
2022-08-05T05:13:32.347Z,100450.58
2022-08-05T05:16:11.175Z,100449.97
2022-08-05T05:18:39.655Z,100449.03
2022-08-05T05:21:07.566Z,100453.02
2022-08-05T05:23:50.361Z,100456.60
2022-08-05T05:26:28.716Z,100458.33
2022-08-05T05:29:02.353Z,100463.86
2022-08-05T05:34:02.015Z,100469.36
2022-08-05T05:36:31.971Z,100466.95
2022-08-05T05:39:00.338Z,100470.73
2022-08-05T05:41:40.802Z,100468.77
2022-08-05T05:44:35.513Z,100472.46
2022-08-05T05:46:58.614Z,100475.48
2022-08-05T05:49:33.024Z,100476.89
2022-08-05T05:52:06.064Z,100478.43
2022-08-05T05:54:51.097Z,100475.38
2022-08-05T05:57:20.305Z,100472.25
2022-08-05T05:59:48.759Z,100471.34
2022-08-05T06:02:17.350Z,100463.84
2022-08-05T06:05:01.348Z,100461.23
2022-08-05T06:07:41.983Z,100463.50
2022-08-05T06:10:11.681Z,100463.96
2022-08-05T06:12:42.067Z,100461.85
2022-08-05T06:15:16.494Z,100457.98
2022-08-05T06:17:54.388Z,100456.29
2022-08-05T06:20:23.225Z,100458.46
2022-08-05T06:22:51.139Z,100454.50
2022-08-05T06:25:24.395Z,100456.90
2022-08-05T06:28:10.871Z,100456.02
2022-08-05T06:30:48.482Z,100459.41
2022-08-05T06:33:19.277Z,100454.84
2022-08-05T06:36:04.215Z,100452.91
2022-08-05T06:38:36.982Z,100450.21
2022-08-05T06:41:07.764Z,100453.48
2022-08-05T06:43:57.926Z,100453.29
2022-08-05T06:46:30.430Z,100455.45
2022-08-05T06:49:01.212Z,100451.00
2022-08-05T06:51:31.010Z,100448.50
2022-08-05T06:54:01.900Z,100445.25
2022-08-05T06:56:33.876Z,100445.23
2022-08-05T06:59:09.540Z,100443.23
2022-08-05T07:01:41.485Z,100440.60
2022-08-05T07:04:10.414Z,100437.13
2022-08-05T07:06:38.391Z,100433.70
2022-08-05T07:09:06.406Z,100434.37
2022-08-05T07:11:37.329Z,100431.95
2022-08-05T07:14:28.918Z,100437.09
2022-08-05T07:18:08.590Z,100436.45
2022-08-05T07:20:31.421Z,100439.20
2022-08-05T07:22:39.258Z,100429.52
2022-08-05T07:25:22.064Z,100431.23
2022-08-05T07:27:57.585Z,100426.33
2022-08-05T07:30:38.857Z,100431.96
2022-08-05T07:33:16.063Z,100433.45
2022-08-05T07:36:04.201Z,100430.17
2022-08-05T07:38:43.131Z,100430.74
2022-08-05T07:42:14.318Z,100428.73
2022-08-05T07:44:14.382Z,100431.59
2022-08-05T07:46:49.679Z,100427.29
2022-08-05T07:49:19.888Z,100428.69
2022-08-05T07:51:52.994Z,100424.84
2022-08-05T07:54:31.065Z,100423.00
2022-08-05T07:57:18.193Z,100422.40
2022-08-05T07:59:51.101Z,100419.48
2022-08-05T08:02:26.867Z,100420.67
2022-08-05T08:04:59.818Z,100416.88
2022-08-05T08:07:29.010Z,100416.89
2022-08-05T08:10:08.083Z,100418.95
2022-08-05T08:12:49.517Z,100423.08
2022-08-05T08:15:18.355Z,100419.67
2022-08-05T08:18:13.770Z,100423.14
2022-08-05T08:21:02.963Z,100417.37
2022-08-05T08:24:02.399Z,100412.76
2022-08-05T08:26:27.017Z,100415.92
2022-08-05T08:29:21.597Z,100410.73
2022-08-05T08:31:48.708Z,100413.33
2022-08-05T08:34:30.333Z,100417.42
2022-08-05T08:37:03.360Z,100418.65
2022-08-05T08:39:37.543Z,100415.55
2022-08-05T08:42:32.346Z,100413.94
2022-08-05T08:45:21.244Z,100416.39
2022-08-05T08:48:12.774Z,100407.61
2022-08-05T08:51:22.572Z,100412.14
2022-08-05T08:53:36.308Z,100410.98
2022-08-05T08:56:06.336Z,100410.05
2022-08-05T08:58:44.037Z,100406.18
2022-08-05T09:01:18.257Z,100405.86
2022-08-05T09:03:52.841Z,100405.16
2022-08-05T09:06:29.635Z,100400.90
2022-08-05T09:09:01.033Z,100403.53
2022-08-05T09:11:52.669Z,100401.17
2022-08-05T09:14:56.938Z,100397.48
2022-08-05T09:17:59.217Z,100400.41
2022-08-05T09:20:37.814Z,100396.32
2022-08-05T09:23:18.553Z,100396.61
2022-08-05T09:26:01.628Z,100392.86
2022-08-05T09:28:34.741Z,100390.67
2022-08-05T09:31:22.831Z,100390.20
2022-08-05T09:34:06.980Z,100385.77
2022-08-05T09:36:56.317Z,100380.96
2022-08-05T09:39:45.048Z,100379.71
2022-08-05T09:42:23.898Z,100380.43
2022-08-05T09:45:03.359Z,100380.36
2022-08-05T09:47:55.070Z,100381.98
2022-08-05T09:50:37.594Z,100374.96
2022-08-05T09:53:22.987Z,100371.17
2022-08-05T09:56:04.699Z,100373.33
2022-08-05T09:58:41.819Z,100368.89
2022-08-05T10:01:14.926Z,100368.99
2022-08-05T10:04:10.322Z,100366.36
2022-08-05T10:06:41.052Z,100369.70
2022-08-05T10:09:25.063Z,100370.88
2022-08-05T10:12:29.966Z,100368.45
2022-08-05T10:15:20.458Z,100369.82
2022-08-05T10:18:23.066Z,100359.39
2022-08-05T10:21:06.902Z,100348.62
2022-08-05T10:24:00.113Z,100342.76
2022-08-05T10:26:32.713Z,100339.91
2022-08-05T10:29:02.777Z,100334.55
2022-08-05T10:32:53.843Z,100334.08
2022-08-05T10:34:25.867Z,100338.21
2022-08-05T10:36:58.441Z,100337.02
2022-08-05T10:40:03.025Z,100337.02
2022-08-05T10:42:34.013Z,100336.59
2022-08-05T10:45:20.932Z,100334.11
2022-08-05T10:48:29.670Z,100330.86
2022-08-05T10:51:21.649Z,100325.02
2022-08-05T10:53:50.558Z,100328.89
2022-08-05T10:56:26.061Z,100326.63
2022-08-05T10:58:54.649Z,100317.07
2022-08-05T11:01:55.337Z,100318.66
2022-08-05T11:04:28.157Z,100307.52
2022-08-05T11:07:01.571Z,100308.89
2022-08-05T11:09:46.273Z,100302.02
2022-08-05T11:12:54.208Z,100301.11
2022-08-05T11:16:01.118Z,100304.77
2022-08-05T11:18:26.701Z,100302.02
2022-08-05T11:20:55.232Z,100300.09
2022-08-05T11:24:04.857Z,100296.63
2022-08-05T11:26:28.151Z,100296.13
2022-08-05T11:29:13.862Z,100298.55
2022-08-05T11:31:57.234Z,100295.48
2022-08-05T11:34:51.995Z,100295.93
2022-08-05T11:38:28.065Z,100298.32
2022-08-05T11:41:13.976Z,100303.48
2022-08-05T11:44:05.002Z,100297.08
2022-08-05T11:46:58.076Z,100291.16
2022-08-05T11:49:34.126Z,100295.09
2022-08-05T11:52:11.281Z,100289.54
2022-08-05T11:54:41.299Z,100296.16
2022-08-05T11:57:39.360Z,100294.50
2022-08-05T11:59:58.574Z,100291.05
2022-08-05T12:02:33.697Z,100293.54
2022-08-05T12:05:08.078Z,100289.99
2022-08-05T12:08:10.270Z,100285.03
2022-08-05T12:10:45.023Z,100288.32
2022-08-05T12:13:18.468Z,100281.88
2022-08-05T12:15:58.130Z,100277.87
2022-08-05T12:18:33.164Z,100272.23
2022-08-05T12:21:19.155Z,100274.23
2022-08-05T12:24:04.771Z,100273.44
2022-08-05T12:26:36.195Z,100270.79
2022-08-05T12:29:15.943Z,100264.23
2022-08-05T12:31:53.538Z,100262.50
2022-08-05T12:34:26.817Z,100265.98
2022-08-05T12:37:00.777Z,100256.20
2022-08-05T12:39:37.210Z,100253.67
2022-08-05T12:42:14.381Z,100250.48
2022-08-05T12:44:44.959Z,100250.36
2022-08-05T12:47:17.073Z,100251.83
2022-08-05T12:50:04.494Z,100250.43
2022-08-05T12:52:42.073Z,100250.95
2022-08-05T12:55:25.806Z,100248.05
2022-08-05T12:58:52.495Z,100244.30
2022-08-05T13:02:00.628Z,100242.94
2022-08-05T13:03:41.575Z,100240.73
2022-08-05T13:06:16.513Z,100239.27
2022-08-05T13:08:51.942Z,100234.34
2022-08-05T13:12:02.573Z,100234.92
2022-08-05T13:14:20.237Z,100233.08
2022-08-05T13:16:57.958Z,100229.01
2022-08-05T13:19:47.287Z,100221.96
2022-08-05T13:22:28.325Z,100223.30
2022-08-05T13:25:00.449Z,100222.41
2022-08-05T13:27:41.187Z,100218.80
2022-08-05T13:30:34.810Z,100219.00
2022-08-05T13:33:01.416Z,100211.36
2022-08-05T13:35:42.877Z,100215.20
2022-08-05T13:38:28.002Z,100212.92
2022-08-05T13:41:03.908Z,100212.61
2022-08-05T13:43:45.377Z,100210.96
2022-08-05T13:46:37.773Z,100208.00
2022-08-05T13:49:10.182Z,100200.84
2022-08-05T13:51:46.701Z,100191.77
2022-08-05T13:54:20.972Z,100192.81
2022-08-05T13:56:55.278Z,100191.48
2022-08-05T13:59:26.810Z,100186.17
2022-08-05T14:01:58.663Z,100185.23
2022-08-05T14:04:50.138Z,100181.38
2022-08-05T14:07:25.623Z,100185.09
2022-08-05T14:10:30.815Z,100180.13
2022-08-05T14:12:59.897Z,100177.26
2022-08-05T14:16:07.975Z,100178.21
2022-08-05T14:18:17.573Z,100179.31
2022-08-05T14:20:54.479Z,100172.66
2022-08-05T14:23:25.901Z,100172.99
2022-08-05T14:25:58.094Z,100172.14
2022-08-05T14:28:29.554Z,100174.00
2022-08-05T14:30:58.962Z,100172.52
2022-08-05T14:33:26.843Z,100170.84
2022-08-05T14:35:54.939Z,100166.85
2022-08-05T14:38:32.290Z,100163.92
2022-08-05T14:41:06.105Z,100163.23
2022-08-05T14:43:57.673Z,100157.70
2022-08-05T14:46:29.600Z,100158.84
2022-08-05T14:49:06.794Z,100161.77
2022-08-05T14:51:38.217Z,100163.34
2022-08-05T14:54:28.425Z,100163.79
2022-08-05T14:56:58.249Z,100155.63
2022-08-05T14:59:29.551Z,100157.59
2022-08-05T15:02:14.687Z,100155.22
2022-08-05T15:04:43.899Z,100157.67
2022-08-05T15:08:04.585Z,100159.67
2022-08-05T15:10:03.181Z,100158.06
2022-08-05T15:12:51.638Z,100157.39
2022-08-05T15:15:54.365Z,100162.52
2022-08-05T15:18:08.816Z,100153.48
2022-08-05T15:20:36.714Z,100154.20
2022-08-05T15:23:11.096Z,100154.63
2022-08-05T15:25:52.215Z,100151.02
2022-08-05T15:28:27.097Z,100147.21
2022-08-05T15:30:56.307Z,100145.70
2022-08-05T15:34:18.635Z,100140.45
2022-08-05T15:36:17.838Z,100139.61
2022-08-05T15:41:00.100Z,100133.02
2022-08-05T15:41:55.721Z,100128.90
2022-08-05T15:44:29.979Z,100133.89
2022-08-05T15:46:59.353Z,100131.66
2022-08-05T15:49:47.978Z,100127.22
2022-08-05T15:52:16.794Z,100125.31
2022-08-05T15:54:57.553Z,100125.70
2022-08-05T15:57:34.683Z,100122.17
2022-08-05T16:00:05.460Z,100120.27
2022-08-05T16:02:33.735Z,100123.45
2022-08-05T16:05:02.425Z,100121.48
2022-08-05T16:07:33.362Z,100122.04
2022-08-05T16:10:01.270Z,100125.79
2022-08-05T16:12:30.560Z,100126.05
2022-08-05T16:14:59.531Z,100121.05
2022-08-05T16:17:29.121Z,100124.15
2022-08-05T16:20:04.584Z,100122.96
2022-08-05T16:22:35.788Z,100121.83
2022-08-05T16:25:09.854Z,100119.79
2022-08-05T16:28:00.387Z,100117.60
2022-08-05T16:30:28.748Z,100113.73
2022-08-05T16:32:59.087Z,100110.20
2022-08-05T16:35:32.419Z,100106.38
2022-08-05T16:38:24.489Z,100108.48
2022-08-05T16:40:55.280Z,100106.07
2022-08-05T16:43:30.985Z,100105.61
2022-08-05T16:46:03.519Z,100106.56
2022-08-05T16:48:38.801Z,100106.67
2022-08-05T16:51:09.128Z,100107.73
2022-08-05T16:54:03.948Z,100107.48
2022-08-05T16:56:33.931Z,100104.66
2022-08-05T16:59:07.517Z,100101.98
2022-08-05T17:01:54.043Z,100107.87
2022-08-05T17:04:27.307Z,100107.44
2022-08-05T17:07:01.425Z,100106.51
2022-08-05T17:09:30.036Z,100103.59
2022-08-05T17:11:59.203Z,100108.55
2022-08-05T17:14:37.447Z,100106.92
2022-08-05T17:17:14.221Z,100102.41
2022-08-05T17:19:45.723Z,100100.14
2022-08-05T17:22:25.034Z,100102.40
2022-08-05T17:24:58.045Z,100104.77
2022-08-05T17:27:33.730Z,100108.29
2022-08-05T17:30:07.091Z,100108.86
2022-08-05T17:32:42.087Z,100109.05
2022-08-05T17:35:12.149Z,100108.33
2022-08-05T17:37:45.355Z,100109.17
2022-08-05T17:40:17.727Z,100110.96
2022-08-05T17:42:51.078Z,100111.04
2022-08-05T17:45:22.589Z,100113.08
2022-08-05T17:47:54.853Z,100117.52
2022-08-05T17:50:30.371Z,100116.15
2022-08-05T17:53:01.195Z,100115.92
2022-08-05T17:55:38.280Z,100113.52
2022-08-05T17:58:11.196Z,100117.59
2022-08-05T18:00:47.420Z,100114.45
2022-08-05T18:03:48.337Z,100114.89
2022-08-05T18:06:11.206Z,100116.15
2022-08-05T18:08:44.437Z,100116.21
2022-08-05T18:11:24.165Z,100117.38
2022-08-05T18:14:07.118Z,100116.80
2022-08-05T18:16:51.080Z,100117.72
2022-08-05T18:19:22.917Z,100122.09
2022-08-05T18:22:08.369Z,100126.66
2022-08-05T18:24:39.547Z,100125.23
2022-08-05T18:27:12.896Z,100130.11
2022-08-05T18:29:54.014Z,100127.55
2022-08-05T18:32:27.693Z,100126.45
2022-08-05T18:34:56.301Z,100130.05
2022-08-05T18:37:33.519Z,100130.22
2022-08-05T18:40:33.714Z,100129.09
2022-08-05T18:42:52.180Z,100126.92
2022-08-05T18:45:20.285Z,100128.05
2022-08-05T18:47:53.172Z,100122.58
2022-08-05T18:50:46.266Z,100118.42
2022-08-05T18:53:20.545Z,100118.40
2022-08-05T18:55:52.527Z,100124.74
2022-08-05T18:58:27.130Z,100126.95
2022-08-05T19:00:57.325Z,100129.98
2022-08-05T19:03:55.685Z,100126.89
2022-08-05T19:06:21.517Z,100125.35
2022-08-05T19:08:50.405Z,100128.27
2022-08-05T19:11:21.914Z,100125.88
2022-08-05T19:14:00.635Z,100131.86
2022-08-05T19:16:36.882Z,100131.58
2022-08-05T19:19:14.939Z,100125.48
2022-08-05T19:21:51.451Z,100127.15
2022-08-05T19:24:34.497Z,100124.49
2022-08-05T19:27:04.422Z,100126.95
2022-08-05T19:29:36.153Z,100128.45
2022-08-05T19:32:11.477Z,100129.10
2022-08-05T19:34:40.571Z,100132.05
2022-08-05T19:37:10.641Z,100131.54
2022-08-05T19:39:45.705Z,100132.55
2022-08-05T19:42:35.603Z,100133.64
2022-08-05T19:45:06.546Z,100127.41
2022-08-05T19:47:37.146Z,100129.34
2022-08-05T19:50:07.683Z,100132.05
2022-08-05T19:52:38.815Z,100131.88
2022-08-05T19:55:08.950Z,100127.66
2022-08-05T19:58:07.019Z,100128.97
2022-08-05T20:00:43.170Z,100131.05
2022-08-05T20:03:11.542Z,100134.77
2022-08-05T20:05:49.977Z,100143.22
2022-08-05T20:08:19.196Z,100140.27
2022-08-05T20:10:49.660Z,100140.14
2022-08-05T20:13:25.846Z,100137.83
2022-08-05T20:15:58.394Z,100140.16
2022-08-05T20:18:33.206Z,100137.08
2022-08-05T20:21:05.171Z,100132.09
2022-08-05T20:23:40.766Z,100127.61
2022-08-05T20:26:20.718Z,100122.81
2022-08-05T20:28:51.154Z,100122.30
2022-08-05T20:31:28.395Z,100123.64
2022-08-05T20:34:05.975Z,100123.11
2022-08-05T20:36:36.447Z,100126.49
2022-08-05T20:39:07.273Z,100124.57
2022-08-05T20:41:43.724Z,100123.30
2022-08-05T20:44:29.691Z,100122.81
2022-08-05T20:47:00.736Z,100129.86
2022-08-05T20:49:28.602Z,100132.12
2022-08-05T20:51:57.851Z,100135.73
2022-08-05T20:54:42.891Z,100138.50
2022-08-05T20:57:42.383Z,100136.80
2022-08-05T21:00:21.263Z,100133.73
2022-08-05T21:03:01.206Z,100134.10
2022-08-05T21:05:38.309Z,100131.77
2022-08-05T21:08:17.271Z,100131.85
2022-08-05T21:10:48.513Z,100136.19
2022-08-05T21:13:26.022Z,100132.41
2022-08-05T21:15:55.308Z,100135.48
2022-08-05T21:18:23.517Z,100138.36
2022-08-05T21:20:55.424Z,100140.08
2022-08-05T21:23:23.321Z,100142.95
2022-08-05T21:25:52.013Z,100143.17
2022-08-05T21:28:23.875Z,100144.45
2022-08-05T21:30:58.825Z,100140.49
2022-08-05T21:33:26.749Z,100140.80
2022-08-05T21:36:08.066Z,100143.23
2022-08-05T21:38:40.422Z,100145.79
2022-08-05T21:41:09.033Z,100144.34
2022-08-05T21:43:41.834Z,100146.55
2022-08-05T21:46:12.675Z,100143.83
2022-08-05T21:48:40.867Z,100145.79
2022-08-05T21:52:16.386Z,100147.80
2022-08-05T21:54:03.910Z,100143.27
2022-08-05T21:56:31.992Z,100150.23
2022-08-05T21:59:01.198Z,100147.78
2022-08-05T22:01:35.912Z,100145.39
2022-08-05T22:04:04.111Z,100144.05
2022-08-05T22:06:39.685Z,100142.73
2022-08-05T22:09:14.045Z,100141.67
2022-08-05T22:11:46.945Z,100141.48
2022-08-05T22:14:34.438Z,100143.95
2022-08-05T22:17:06.588Z,100143.98
2022-08-05T22:20:00.793Z,100145.95
2022-08-05T22:22:28.106Z,100145.70
2022-08-05T22:25:21.001Z,100152.67
2022-08-05T22:28:04.892Z,100151.61
2022-08-05T22:30:53.545Z,100147.05
2022-08-05T22:33:57.323Z,100148.83
2022-08-05T22:36:14.507Z,100144.20
2022-08-05T22:38:48.297Z,100142.84
2022-08-05T22:42:04.552Z,100140.73
2022-08-05T22:44:08.737Z,100142.45
2022-08-05T22:46:39.559Z,100145.83
2022-08-05T22:49:23.070Z,100141.09
2022-08-05T22:52:05.805Z,100140.41
2022-08-05T22:54:36.794Z,100136.82
2022-08-05T22:57:08.657Z,100135.34
2022-08-05T22:59:46.294Z,100136.48
2022-08-05T23:02:17.938Z,100137.82
2022-08-05T23:04:51.558Z,100135.03
2022-08-05T23:07:22.300Z,100140.08
2022-08-05T23:09:57.531Z,100139.78
2022-08-05T23:12:32.711Z,100130.45
2022-08-05T23:15:03.615Z,100128.14
2022-08-05T23:17:34.493Z,100130.85
2022-08-05T23:20:16.635Z,100132.14
2022-08-05T23:22:48.543Z,100134.23
2022-08-05T23:25:51.503Z,100131.36
2022-08-05T23:28:08.484Z,100132.52
2022-08-05T23:30:40.226Z,100136.56
2022-08-05T23:33:16.377Z,100135.40
2022-08-05T23:35:50.843Z,100136.77
2022-08-05T23:38:18.681Z,100139.74
2022-08-05T23:40:50.047Z,100142.97
2022-08-05T23:43:25.066Z,100143.23
2022-08-05T23:46:19.741Z,100145.29
2022-08-05T23:48:59.590Z,100145.64
2022-08-05T23:51:54.926Z,100141.55
2022-08-05T23:54:26.479Z,100138.88
2022-08-05T23:57:03.277Z,100137.75
